Sweden, Pennsylvania
Current Conditions -  °F | °C
As of 6:56 PM on Tuesday 25 Nov 2014 (Local Time) from KELZ Reporting Station
Overcast Overcast  
Wind Chill: 30°   Ceiling: 3500
Heat Index: 37°   Visibility: 10mi
Dew Point: 23°   Wind: 10mph
Humidity: 57%   Direction: 270°W
Pressure: 30.05"   Gusts: 20mph
Location:  41.7605°N, 77.9728°W
Report Text: KELZ 252356Z AUTO 27009G17KT 10SM OVC035 03/M05 A3005 RMK AO2 SLP195 T00281050 10072 20028 53030
Loading
Personal Weather Stations






























Interactive Weather Map New forecast layout! Learn more

10-Day Weather Forecast

Advertisements
Track Severe Weather on mobile